createdAt,value
2022-10-13T00:02:23.839Z,8.45
2022-10-13T00:06:00.625Z,8.44
2022-10-13T00:09:24.209Z,8.40
2022-10-13T00:13:10.883Z,8.40
2022-10-13T00:16:51.592Z,8.41
2022-10-13T00:20:28.691Z,8.35
2022-10-13T00:24:21.069Z,8.33
2022-10-13T00:27:45.987Z,8.26
2022-10-13T00:31:38.419Z,8.28
2022-10-13T00:35:19.339Z,8.25
2022-10-13T00:38:39.528Z,8.24
2022-10-13T00:42:13.858Z,8.21
2022-10-13T00:45:53.775Z,8.23
2022-10-13T00:49:29.483Z,8.17
2022-10-13T00:53:02.698Z,8.14
2022-10-13T00:56:42.968Z,8.08
2022-10-13T01:00:03.486Z,8.12
2022-10-13T01:03:38.392Z,8.15
2022-10-13T01:07:07.121Z,8.10
2022-10-13T01:10:49.401Z,8.06
2022-10-13T01:14:42.116Z,8.04
2022-10-13T01:18:40.577Z,7.98
2022-10-13T01:22:27.072Z,7.96
2022-10-13T01:26:24.652Z,7.96
2022-10-13T01:30:10.631Z,7.94
2022-10-13T01:34:06.483Z,7.89
2022-10-13T01:38:20.762Z,7.79
2022-10-13T01:42:36.061Z,7.85
2022-10-13T01:46:14.177Z,7.77
2022-10-13T01:50:04.408Z,7.75
2022-10-13T01:53:38.428Z,7.70
2022-10-13T01:57:05.208Z,7.67
2022-10-13T02:00:23.387Z,7.63
2022-10-13T02:03:53.903Z,7.63
2022-10-13T02:07:32.589Z,7.61
2022-10-13T02:11:24.811Z,7.63
2022-10-13T02:15:02.013Z,7.64
2022-10-13T02:18:36.018Z,7.62
2022-10-13T02:22:17.894Z,7.65
2022-10-13T02:25:55.761Z,7.65
2022-10-13T02:29:56.474Z,7.63
2022-10-13T02:33:15.303Z,7.68
2022-10-13T02:36:52.891Z,7.69
2022-10-13T02:40:17.743Z,7.76
2022-10-13T02:43:57.543Z,7.70
2022-10-13T02:47:55.269Z,7.69
2022-10-13T02:51:20.544Z,7.69
2022-10-13T02:55:02.869Z,7.68
2022-10-13T02:58:59.570Z,7.61
2022-10-13T03:02:43.764Z,7.57
2022-10-13T03:06:07.196Z,7.55
2022-10-13T03:09:50.997Z,7.51
2022-10-13T03:13:27.410Z,7.48
2022-10-13T03:16:59.959Z,7.45
2022-10-13T03:20:32.561Z,7.41
2022-10-13T03:24:23.791Z,7.48
2022-10-13T03:27:59.856Z,7.38
2022-10-13T03:31:33.649Z,7.38
2022-10-13T03:35:12.001Z,7.28
2022-10-13T03:38:45.026Z,7.30
2022-10-13T03:42:25.945Z,7.25
2022-10-13T03:46:18.141Z,7.22
2022-10-13T03:50:00.908Z,7.23
2022-10-13T03:53:37.046Z,7.20
2022-10-13T03:57:12.341Z,7.10
2022-10-13T04:00:45.493Z,7.08
2022-10-13T04:04:13.168Z,7.05
2022-10-13T04:07:31.507Z,7.01
2022-10-13T04:11:04.249Z,6.99
2022-10-13T04:14:48.398Z,6.98
2022-10-13T04:18:09.631Z,6.98
2022-10-13T04:21:54.849Z,6.98
2022-10-13T04:25:34.575Z,6.96
2022-10-13T04:28:54.266Z,6.86
2022-10-13T04:32:32.332Z,6.85
2022-10-13T04:36:10.230Z,6.80
2022-10-13T04:39:44.915Z,6.79
2022-10-13T04:43:06.187Z,6.78
2022-10-13T04:46:40.059Z,6.78
2022-10-13T04:50:12.225Z,6.76
2022-10-13T04:53:46.423Z,6.77
2022-10-13T04:57:23.900Z,6.77
2022-10-13T05:01:22.324Z,6.69
2022-10-13T05:04:53.217Z,6.69
2022-10-13T05:08:45.125Z,6.70
2022-10-13T05:12:24.241Z,6.71
2022-10-13T05:15:44.506Z,6.69
2022-10-13T05:19:27.434Z,6.69
2022-10-13T05:23:10.150Z,6.68
2022-10-13T05:26:50.590Z,6.75
2022-10-13T05:30:20.956Z,6.77
2022-10-13T05:34:04.530Z,6.85
2022-10-13T05:37:34.912Z,6.94
2022-10-13T05:40:51.916Z,6.97
2022-10-13T05:44:26.477Z,7.08
2022-10-13T05:48:22.262Z,7.14
2022-10-13T05:51:47.342Z,7.27
2022-10-13T05:55:54.086Z,7.43
2022-10-13T05:59:23.342Z,7.57
2022-10-13T06:07:14.566Z,8.05
2022-10-13T06:11:00.336Z,8.44
2022-10-13T06:14:20.818Z,8.82
2022-10-13T06:17:25.644Z,9.16
2022-10-13T06:20:51.059Z,9.51
2022-10-13T06:24:23.313Z,9.87
2022-10-13T06:28:02.135Z,10.26
2022-10-13T06:31:42.184Z,10.60
2022-10-13T06:35:26.043Z,11.06
2022-10-13T06:38:50.793Z,11.37
2022-10-13T06:42:41.133Z,11.68
2022-10-13T06:50:00.092Z,12.36
2022-10-13T06:53:38.854Z,12.67
2022-10-13T06:57:20.192Z,12.80
2022-10-13T08:34:17.072Z,14.70
2022-10-13T08:38:02.506Z,14.54
2022-10-13T08:42:08.236Z,14.87
2022-10-13T08:45:42.246Z,15.32
2022-10-13T08:53:44.991Z,15.68
2022-10-13T08:57:20.863Z,15.89
2022-10-13T09:01:45.796Z,16.25
2022-10-13T09:12:57.475Z,17.91
2022-10-13T09:17:19.084Z,18.24
2022-10-13T09:32:39.928Z,18.35
2022-10-13T09:36:23.187Z,19.50
2022-10-13T09:40:13.658Z,19.07
2022-10-13T09:44:08.181Z,18.86
2022-10-13T09:48:22.972Z,18.64
2022-10-13T09:52:05.593Z,18.87
2022-10-13T09:56:08.302Z,18.83
2022-10-13T09:59:39.574Z,18.57
2022-10-13T10:03:24.616Z,18.25
2022-10-13T10:07:16.685Z,18.43
2022-10-13T10:11:05.198Z,18.32
2022-10-13T10:14:45.610Z,18.46
2022-10-13T10:18:03.465Z,18.48
2022-10-13T10:21:36.420Z,18.60
2022-10-13T10:24:53.956Z,18.78
2022-10-13T10:38:01.973Z,18.99
2022-10-13T10:45:41.093Z,20.64
2022-10-13T10:48:47.347Z,20.58
2022-10-13T10:52:56.572Z,21.10
2022-10-13T10:56:18.362Z,21.05
2022-10-13T11:23:21.321Z,24.02
2022-10-13T11:26:47.640Z,23.70
2022-10-13T12:03:09.663Z,20.46
2022-10-13T13:02:56.429Z,19.76
2022-10-13T13:10:20.986Z,20.02
2022-10-13T13:20:53.468Z,19.79
2022-10-13T13:32:31.302Z,19.29
2022-10-13T13:40:36.470Z,19.15
2022-10-13T13:55:58.256Z,18.83
2022-10-13T14:00:07.872Z,18.90
2022-10-13T14:03:35.231Z,18.71
2022-10-13T14:07:14.335Z,18.72
2022-10-13T14:11:16.445Z,18.53
2022-10-13T14:15:37.998Z,18.54
2022-10-13T14:19:01.179Z,18.42
2022-10-13T14:22:48.053Z,18.54
2022-10-13T14:43:16.795Z,17.88
2022-10-13T14:52:31.226Z,17.53
2022-10-13T14:56:03.058Z,17.47
2022-10-13T15:03:03.445Z,17.17
2022-10-13T15:06:56.034Z,17.09
2022-10-13T15:10:43.758Z,16.88
2022-10-13T15:14:43.304Z,16.74
2022-10-13T15:18:09.542Z,16.59
2022-10-13T15:21:50.701Z,16.44
2022-10-13T15:25:17.001Z,16.26
2022-10-13T15:28:52.776Z,16.08
2022-10-13T15:32:21.579Z,15.89
2022-10-13T15:36:01.231Z,15.72
2022-10-13T15:39:51.007Z,15.55
2022-10-13T15:43:10.843Z,15.35
2022-10-13T16:09:54.937Z,13.97
2022-10-13T16:14:17.623Z,13.73
2022-10-13T16:18:05.027Z,13.60
2022-10-13T16:26:12.948Z,13.20
2022-10-13T16:30:17.634Z,13.06
2022-10-13T16:34:43.868Z,12.90
2022-10-13T16:38:28.408Z,12.75
2022-10-13T16:41:58.772Z,12.60
2022-10-13T16:45:14.853Z,12.47
2022-10-13T16:48:54.019Z,12.39
2022-10-13T16:53:02.121Z,12.28
2022-10-13T16:56:09.742Z,12.14
2022-10-13T16:59:35.611Z,12.09
2022-10-13T17:03:22.327Z,12.01
2022-10-13T17:06:53.040Z,11.89
2022-10-13T17:10:17.889Z,11.79
2022-10-13T17:13:30.883Z,11.72
2022-10-13T17:16:36.689Z,11.64
2022-10-13T17:19:41.272Z,11.56
2022-10-13T17:23:07.475Z,11.48
2022-10-13T17:26:41.453Z,11.43
2022-10-13T17:29:45.160Z,11.34
2022-10-13T17:32:48.164Z,11.26
2022-10-13T17:35:51.289Z,11.19
2022-10-13T17:38:56.997Z,11.15
2022-10-13T17:42:04.421Z,11.07
2022-10-13T17:45:42.713Z,11.02
2022-10-13T17:48:46.145Z,10.94
2022-10-13T17:51:54.100Z,10.86
2022-10-13T17:54:59.394Z,10.80
2022-10-13T17:58:05.888Z,10.73
2022-10-13T18:01:24.642Z,10.71
2022-10-13T18:04:30.358Z,10.64
2022-10-13T18:07:32.845Z,10.56
2022-10-13T18:11:03.647Z,10.52
2022-10-13T18:14:21.726Z,10.49
2022-10-13T18:17:28.503Z,10.44
2022-10-13T18:20:37.204Z,10.37
2022-10-13T18:23:46.449Z,10.31
2022-10-13T18:26:50.082Z,10.29
2022-10-13T18:30:16.479Z,10.24
2022-10-13T18:33:42.324Z,10.17
2022-10-13T18:37:26.374Z,10.10
2022-10-13T18:40:28.886Z,10.09
2022-10-13T18:43:36.664Z,10.10
2022-10-13T18:46:40.580Z,10.07
2022-10-13T18:49:44.632Z,9.98
2022-10-13T18:52:49.574Z,9.95
2022-10-13T18:56:23.810Z,9.90
2022-10-13T18:59:28.116Z,9.87
2022-10-13T19:02:43.650Z,9.82
2022-10-13T19:05:46.518Z,9.81
2022-10-13T19:08:50.037Z,9.77
2022-10-13T19:11:55.569Z,9.74
2022-10-13T19:15:01.471Z,9.68
2022-10-13T19:18:04.313Z,9.64
2022-10-13T19:21:08.762Z,9.63
2022-10-13T19:24:11.637Z,9.69
2022-10-13T19:27:15.847Z,9.59
2022-10-13T19:30:21.751Z,9.54
2022-10-13T19:33:28.810Z,9.49
2022-10-13T19:36:37.784Z,9.47
2022-10-13T19:39:41.310Z,9.44
2022-10-13T19:42:47.824Z,9.50
2022-10-13T19:45:57.469Z,9.46
2022-10-13T19:49:05.239Z,9.41
2022-10-13T19:52:11.466Z,9.37
2022-10-13T19:55:15.541Z,9.31
2022-10-13T19:58:19.136Z,9.27
2022-10-13T20:01:24.567Z,9.23
2022-10-13T20:04:27.970Z,9.25
2022-10-13T20:07:32.077Z,9.21
2022-10-13T20:11:09.157Z,9.20
2022-10-13T20:14:18.131Z,9.16
2022-10-13T20:17:41.369Z,9.11
2022-10-13T20:21:10.773Z,9.09
2022-10-13T20:24:39.186Z,9.03
2022-10-13T20:28:01.720Z,9.04
2022-10-13T20:31:26.483Z,9.03
2022-10-13T20:34:30.138Z,9.05
2022-10-13T20:37:58.543Z,9.01
2022-10-13T20:41:34.242Z,8.98
2022-10-13T20:44:40.713Z,8.96
2022-10-13T20:47:46.931Z,8.95
2022-10-13T20:50:55.452Z,8.94
2022-10-13T20:53:59.312Z,8.94
2022-10-13T20:57:10.152Z,8.92
2022-10-13T21:00:35.104Z,8.88
2022-10-13T21:03:40.424Z,8.86
2022-10-13T21:06:44.241Z,8.88
2022-10-13T21:09:53.769Z,8.86
2022-10-13T21:13:03.115Z,8.83
2022-10-13T21:16:29.902Z,8.81
2022-10-13T21:19:35.232Z,8.79
2022-10-13T21:22:40.017Z,8.79
2022-10-13T21:25:45.357Z,8.76
2022-10-13T21:28:49.446Z,8.77
2022-10-13T21:31:52.727Z,8.74
2022-10-13T21:35:21.915Z,8.73
2022-10-13T21:38:24.960Z,8.67
2022-10-13T21:41:30.892Z,8.65
2022-10-13T21:44:33.806Z,8.63
2022-10-13T21:47:42.519Z,8.59
2022-10-13T21:50:45.608Z,8.57
2022-10-13T21:53:55.431Z,8.53
2022-10-13T21:57:01.260Z,8.49
2022-10-13T22:00:14.913Z,8.47
2022-10-13T22:03:50.156Z,8.45
2022-10-13T22:06:55.338Z,8.40
2022-10-13T22:10:06.726Z,8.35
2022-10-13T22:13:10.228Z,8.31
2022-10-13T22:16:16.946Z,8.28
2022-10-13T22:19:22.625Z,8.26
2022-10-13T22:22:33.510Z,8.24
2022-10-13T22:25:49.281Z,8.23
2022-10-13T22:28:52.964Z,8.19
2022-10-13T22:32:17.921Z,8.19
2022-10-13T22:35:20.931Z,8.24
2022-10-13T22:38:23.564Z,8.15
2022-10-13T22:41:28.708Z,8.08
2022-10-13T22:44:31.466Z,8.04
2022-10-13T22:47:37.592Z,8.05
2022-10-13T22:50:41.868Z,8.03
2022-10-13T22:53:47.930Z,8.05
2022-10-13T22:56:54.857Z,8.03
2022-10-13T23:00:01.003Z,8.00
2022-10-13T23:03:23.366Z,7.99
2022-10-13T23:06:34.039Z,7.98
2022-10-13T23:10:01.045Z,7.98
2022-10-13T23:13:06.438Z,7.91
2022-10-13T23:16:12.788Z,7.87
2022-10-13T23:19:25.815Z,7.85
2022-10-13T23:22:31.260Z,7.88
2022-10-13T23:25:39.066Z,7.90
2022-10-13T23:28:42.695Z,7.87
2022-10-13T23:32:10.162Z,7.89
2022-10-13T23:35:16.015Z,7.84
2022-10-13T23:38:21.595Z,7.81
2022-10-13T23:41:29.263Z,7.82
2022-10-13T23:44:35.274Z,7.80
2022-10-13T23:47:38.091Z,7.81
2022-10-13T23:51:09.679Z,7.76
2022-10-13T23:54:32.227Z,7.78
2022-10-13T23:57:55.748Z,7.75
